Time;durP1;ratioP1;P1;durP2;ratioP2;P2;SDS_P1;SDS_P2;PMS_P1;PMS_P2;Temp;Humidity;BMP_temperature;BMP_pressure;BME280_temperature;BME280_humidity;BME280_pressure;Samples;Min_cycle;Max_cycle;Signal;HPM_P1;HPM_P2
2024/01/01 00:01:04;;;;;;;15.23;8.70;;;;;;;;;;5029384;28;20182;-58
2024/01/01 00:03:30;;;;;;;13.23;8.47;;;;;;;;;;5028584;28;20213;-57
2024/01/01 00:05:56;;;;;;;8.27;7.17;;;;;;;;;;5027780;28;20236;-58
2024/01/01 00:08:22;;;;;;;11.33;6.87;;;;;;;;;;5032904;28;20210;-58
2024/01/01 00:10:48;;;;;;;10.93;7.20;;;;;;;;;;5033346;28;20653;-58
2024/01/01 00:13:14;;;;;;;9.23;6.40;;;;;;;;;;5032368;28;20617;-58
2024/01/01 00:15:40;;;;;;;11.07;6.30;;;;;;;;;;5033066;28;20645;-57
2024/01/01 00:18:06;;;;;;;8.40;6.53;;;;;;;;;;5032658;28;20169;-58
2024/01/01 00:20:32;;;;;;;9.27;5.90;;;;;;;;;;5031851;28;20899;-58
2024/01/01 00:22:58;;;;;;;10.17;6.00;;;;;;;;;;5032541;28;20307;-58
2024/01/01 00:25:24;;;;;;;7.00;5.47;;;;;;;;;;5032983;28;20177;-57
2024/01/01 00:27:50;;;;;;;8.00;5.80;;;;;;;;;;5032611;28;20174;-56
2024/01/01 00:30:16;;;;;;;10.07;6.23;;;;;;;;;;5031706;28;20557;-58
2024/01/01 00:32:42;;;;;;;15.50;5.77;;;;;;;;;;5032164;28;20665;-57
2024/01/01 00:35:08;;;;;;;11.37;5.60;;;;;;;;;;5031480;28;20641;-58
2024/01/01 00:37:36;;;;;;;9.13;5.27;;;;;;;;;;5032321;28;20189;-58
2024/01/01 00:40:02;;;;;;;7.17;5.23;;;;;;;;;;5026158;28;20263;-57
2024/01/01 00:42:28;;;;;;;12.27;6.13;;;;;;;;;;5030747;28;20642;-54
2024/01/01 00:44:54;;;;;;;13.40;5.17;;;;;;;;;;5029894;28;20284;-54
2024/01/01 00:47:20;;;;;;;7.93;5.17;;;;;;;;;;5028315;28;20597;-55
2024/01/01 00:49:46;;;;;;;8.73;5.27;;;;;;;;;;5029187;28;20190;-55
2024/01/01 00:52:12;;;;;;;9.07;5.50;;;;;;;;;;5031396;28;20205;-54
2024/01/01 00:54:38;;;;;;;9.90;5.30;;;;;;;;;;5029615;28;20603;-55
2024/01/01 00:57:04;;;;;;;7.70;5.23;;;;;;;;;;5028082;28;20181;-55
2024/01/01 00:59:30;;;;;;;11.60;5.53;;;;;;;;;;5027719;28;20226;-55
2024/01/01 01:01:56;;;;;;;6.53;4.97;;;;;;;;;;5030512;28;20201;-54
2024/01/01 01:04:22;;;;;;;6.73;4.57;;;;;;;;;;5027399;28;20209;-55
2024/01/01 01:06:48;;;;;;;7.83;4.33;;;;;;;;;;5029540;28;20186;-55
2024/01/01 01:09:15;;;;;;;9.68;4.93;;;;;;;;;;5025143;28;20425;-55
2024/01/01 01:11:41;;;;;;;7.20;4.10;;;;;;;;;;5029014;28;20656;-55
2024/01/01 01:14:07;;;;;;;8.80;4.40;;;;;;;;;;5020280;28;20202;-55
2024/01/01 01:16:33;;;;;;;6.77;3.60;;;;;;;;;;5029130;28;20251;-55
2024/01/01 01:18:59;;;;;;;12.23;4.00;;;;;;;;;;5028899;28;20209;-56
2024/01/01 01:21:26;;;;;;;11.63;4.17;;;;;;;;;;5030733;28;20572;-55
2024/01/01 01:23:52;;;;;;;11.00;4.53;;;;;;;;;;5031192;28;20201;-55
2024/01/01 01:26:18;;;;;;;9.20;3.77;;;;;;;;;;5031991;28;20181;-55
2024/01/01 01:28:44;;;;;;;6.77;4.03;;;;;;;;;;5031284;28;20170;-55
2024/01/01 01:31:10;;;;;;;7.00;4.07;;;;;;;;;;5030931;28;20590;-55
2024/01/01 01:33:37;;;;;;;6.53;3.93;;;;;;;;;;5029933;28;20190;-55
2024/01/01 01:36:03;;;;;;;8.63;3.20;;;;;;;;;;5031485;28;20181;-55
2024/01/01 01:38:29;;;;;;;8.33;3.50;;;;;;;;;;5030787;28;20503;-55
2024/01/01 01:40:55;;;;;;;9.73;3.30;;;;;;;;;;5031514;28;20217;-55
2024/01/01 01:43:23;;;;;;;5.07;2.60;;;;;;;;;;5030265;28;20259;-55
2024/01/01 01:45:50;;;;;;;8.80;3.60;;;;;;;;;;5029534;28;20177;-54
2024/01/01 01:48:17;;;;;;;7.33;3.43;;;;;;;;;;5029782;28;20190;-55
2024/01/01 01:50:45;;;;;;;4.53;2.50;;;;;;;;;;5022585;28;20625;-55
2024/01/01 01:53:12;;;;;;;6.00;3.37;;;;;;;;;;5030852;28;20181;-55
2024/01/01 01:55:38;;;;;;;6.03;2.80;;;;;;;;;;5027234;28;20237;-55
2024/01/01 01:58:04;;;;;;;7.03;3.27;;;;;;;;;;5030585;28;20533;-55
2024/01/01 02:00:31;;;;;;;7.43;2.80;;;;;;;;;;5030245;28;20942;-54
2024/01/01 02:02:57;;;;;;;7.77;2.50;;;;;;;;;;5030748;28;20201;-58
2024/01/01 02:05:23;;;;;;;6.47;2.60;;;;;;;;;;5029123;28;20176;-58
2024/01/01 02:07:49;;;;;;;5.00;2.60;;;;;;;;;;5028121;28;20181;-57
2024/01/01 02:10:15;;;;;;;6.00;2.60;;;;;;;;;;5039454;28;20183;-57
2024/01/01 02:12:45;;;;;;;7.03;3.47;;;;;;;;;;5030303;28;20279;-57
2024/01/01 02:15:11;;;;;;;7.03;3.30;;;;;;;;;;5026037;28;20174;-58
2024/01/01 02:17:36;;;;;;;9.63;3.13;;;;;;;;;;5029288;28;20252;-57
2024/01/01 02:20:05;;;;;;;7.70;2.83;;;;;;;;;;5029841;28;20174;-56
2024/01/01 02:22:39;;;;;;;4.23;2.47;;;;;;;;;;5030954;28;20725;-57
2024/01/01 02:25:06;;;;;;;6.40;2.63;;;;;;;;;;5030726;28;20205;-57
2024/01/01 02:27:32;;;;;;;4.70;2.03;;;;;;;;;;5028544;28;20208;-57
2024/01/01 02:29:58;;;;;;;5.00;1.97;;;;;;;;;;5058211;28;20182;-56
2024/01/01 02:32:24;;;;;;;6.03;2.00;;;;;;;;;;5028199;28;20257;-56
2024/01/01 02:34:50;;;;;;;6.90;2.13;;;;;;;;;;5029029;28;20185;-56
2024/01/01 02:37:16;;;;;;;4.80;1.93;;;;;;;;;;5028151;28;20189;-55
2024/01/01 02:39:42;;;;;;;5.40;3.00;;;;;;;;;;5024922;28;20197;-56
2024/01/01 02:42:08;;;;;;;4.57;1.90;;;;;;;;;;5026381;28;20649;-56
2024/01/01 02:44:34;;;;;;;5.50;2.47;;;;;;;;;;5034307;28;20209;-56
2024/01/01 02:47:00;;;;;;;6.77;2.23;;;;;;;;;;5029194;28;20682;-56
2024/01/01 02:49:26;;;;;;;6.30;2.47;;;;;;;;;;5026167;28;20715;-56
2024/01/01 02:51:52;;;;;;;4.73;2.50;;;;;;;;;;5033570;28;20185;-56
2024/01/01 02:54:19;;;;;;;4.33;2.37;;;;;;;;;;5029563;28;20316;-56
2024/01/01 02:56:45;;;;;;;8.77;2.23;;;;;;;;;;5028824;28;20193;-56
2024/01/01 02:59:11;;;;;;;5.47;2.20;;;;;;;;;;5029299;28;20236;-56
2024/01/01 03:01:37;;;;;;;6.20;2.60;;;;;;;;;;5028594;28;20772;-56
2024/01/01 03:04:03;;;;;;;4.07;2.30;;;;;;;;;;5031786;28;20901;-56
2024/01/01 03:06:29;;;;;;;8.30;2.80;;;;;;;;;;5030151;28;20178;-56
2024/01/01 03:08:55;;;;;;;6.60;2.30;;;;;;;;;;5022570;28;20177;-56
2024/01/01 03:11:21;;;;;;;8.93;2.50;;;;;;;;;;5030313;28;20735;-56
2024/01/01 03:13:48;;;;;;;5.53;2.40;;;;;;;;;;5029221;28;20685;-56
2024/01/01 03:16:15;;;;;;;4.70;2.10;;;;;;;;;;5028649;28;20697;-56
2024/01/01 03:18:41;;;;;;;3.83;2.10;;;;;;;;;;5029219;28;20183;-56
2024/01/01 03:21:07;;;;;;;5.10;2.40;;;;;;;;;;5029211;28;20220;-56
2024/01/01 03:23:33;;;;;;;5.00;1.87;;;;;;;;;;5029018;28;20206;-55
2024/01/01 03:25:59;;;;;;;5.13;2.37;;;;;;;;;;5029837;28;20170;-55
2024/01/01 03:28:25;;;;;;;4.30;1.93;;;;;;;;;;5027636;28;20652;-55
2024/01/01 03:30:51;;;;;;;3.10;1.77;;;;;;;;;;5028953;28;20166;-55
2024/01/01 03:33:17;;;;;;;5.33;2.57;;;;;;;;;;5024963;28;20216;-55
2024/01/01 03:35:45;;;;;;;3.77;2.03;;;;;;;;;;5029406;28;20498;-56
2024/01/01 03:38:11;;;;;;;4.27;2.50;;;;;;;;;;5030810;28;20177;-55
2024/01/01 03:40:37;;;;;;;4.23;2.20;;;;;;;;;;5031231;28;20177;-56
2024/01/01 03:43:03;;;;;;;6.47;2.20;;;;;;;;;;5033621;28;20169;-56
2024/01/01 03:45:29;;;;;;;6.97;2.57;;;;;;;;;;5032376;28;20273;-55
2024/01/01 03:47:55;;;;;;;6.50;2.40;;;;;;;;;;5032220;28;20173;-56
2024/01/01 03:50:21;;;;;;;6.73;2.33;;;;;;;;;;5029309;28;20208;-55
2024/01/01 03:52:48;;;;;;;6.03;2.30;;;;;;;;;;5032873;28;20193;-56
2024/01/01 03:55:15;;;;;;;6.63;2.40;;;;;;;;;;5032644;28;20610;-55
2024/01/01 03:57:41;;;;;;;4.13;2.30;;;;;;;;;;5031367;28;20545;-56
2024/01/01 04:00:08;;;;;;;6.50;2.87;;;;;;;;;;5033693;28;20634;-56
2024/01/01 04:02:35;;;;;;;5.47;2.60;;;;;;;;;;5031868;28;20244;-56
2024/01/01 04:05:01;;;;;;;7.67;2.90;;;;;;;;;;5030806;28;20216;-56
2024/01/01 04:07:27;;;;;;;6.67;2.47;;;;;;;;;;5026894;28;20621;-56
2024/01/01 04:09:53;;;;;;;6.87;2.50;;;;;;;;;;5032123;28;20177;-56
2024/01/01 04:12:19;;;;;;;8.93;2.27;;;;;;;;;;5032469;28;20169;-55
2024/01/01 04:14:45;;;;;;;6.27;3.23;;;;;;;;;;5039755;28;20584;-56
2024/01/01 04:17:12;;;;;;;6.47;3.50;;;;;;;;;;5029448;28;20592;-55
2024/01/01 04:19:38;;;;;;;4.73;2.93;;;;;;;;;;5031329;28;20292;-55
2024/01/01 04:22:04;;;;;;;10.27;2.70;;;;;;;;;;5023795;28;20722;-55
2024/01/01 04:24:30;;;;;;;9.27;2.90;;;;;;;;;;5029668;28;20296;-55
2024/01/01 04:26:56;;;;;;;7.20;2.80;;;;;;;;;;5032720;28;20253;-55
2024/01/01 04:29:22;;;;;;;10.23;3.00;;;;;;;;;;5032026;28;20908;-55
2024/01/01 04:31:48;;;;;;;10.23;4.93;;;;;;;;;;5032307;28;20186;-55
2024/01/01 04:34:14;;;;;;;9.07;3.20;;;;;;;;;;5031302;28;20178;-55
2024/01/01 04:36:40;;;;;;;4.93;2.50;;;;;;;;;;5032708;28;20166;-55
2024/01/01 04:39:06;;;;;;;6.80;3.23;;;;;;;;;;5032098;28;20205;-55
2024/01/01 04:41:32;;;;;;;10.83;2.73;;;;;;;;;;5025705;28;20215;-56
2024/01/01 04:43:58;;;;;;;8.00;3.20;;;;;;;;;;5031084;28;20218;-56
2024/01/01 04:46:24;;;;;;;8.23;2.60;;;;;;;;;;5030381;28;20174;-56
2024/01/01 04:48:50;;;;;;;10.67;3.43;;;;;;;;;;5030915;28;20185;-56
2024/01/01 04:51:16;;;;;;;10.17;3.10;;;;;;;;;;5031577;28;20634;-56
2024/01/01 04:53:42;;;;;;;8.70;3.00;;;;;;;;;;5027376;28;20174;-56
2024/01/01 04:56:08;;;;;;;9.77;2.93;;;;;;;;;;5032394;28;20194;-56
2024/01/01 04:58:34;;;;;;;9.10;2.77;;;;;;;;;;5028989;28;20800;-56
2024/01/01 05:01:01;;;;;;;7.73;2.57;;;;;;;;;;5031034;28;20174;-56
2024/01/01 05:03:27;;;;;;;7.93;2.77;;;;;;;;;;5029964;28;20233;-56
2024/01/01 05:05:53;;;;;;;10.60;2.70;;;;;;;;;;5023153;28;20198;-56
2024/01/01 05:08:19;;;;;;;10.30;3.37;;;;;;;;;;5031271;28;20193;-57
2024/01/01 05:10:45;;;;;;;8.03;2.57;;;;;;;;;;5027605;28;20174;-57
2024/01/01 05:13:12;;;;;;;6.80;2.50;;;;;;;;;;5030711;28;20198;-57
2024/01/01 05:15:39;;;;;;;5.47;3.23;;;;;;;;;;5030103;28;20536;-56
2024/01/01 05:18:06;;;;;;;6.63;2.70;;;;;;;;;;5028352;28;20162;-56
2024/01/01 05:20:32;;;;;;;7.90;2.60;;;;;;;;;;5032352;28;20186;-57
2024/01/01 05:22:58;;;;;;;7.40;2.97;;;;;;;;;;5031353;28;20192;-57
2024/01/01 05:25:24;;;;;;;6.53;3.40;;;;;;;;;;5030563;28;20194;-56
2024/01/01 05:27:50;;;;;;;5.83;2.20;;;;;;;;;;5031571;28;20586;-56
2024/01/01 05:30:16;;;;;;;6.07;2.60;;;;;;;;;;5029708;28;20197;-56
2024/01/01 05:32:42;;;;;;;9.47;2.87;;;;;;;;;;5034124;28;20186;-56
2024/01/01 05:35:08;;;;;;;4.20;2.60;;;;;;;;;;5031348;28;20196;-57
2024/01/01 05:37:34;;;;;;;6.53;2.33;;;;;;;;;;5032017;28;20209;-57
2024/01/01 05:40:00;;;;;;;9.90;3.00;;;;;;;;;;5030888;28;20174;-57
2024/01/01 05:42:28;;;;;;;7.37;3.57;;;;;;;;;;5031093;28;20186;-57
2024/01/01 05:44:54;;;;;;;4.63;2.27;;;;;;;;;;5030074;28;20602;-57
2024/01/01 05:47:20;;;;;;;7.93;2.50;;;;;;;;;;5034024;28;20661;-57
2024/01/01 05:49:46;;;;;;;10.07;3.63;;;;;;;;;;5029568;28;20200;-57
2024/01/01 05:52:12;;;;;;;7.60;3.00;;;;;;;;;;5030255;28;20556;-57
2024/01/01 05:54:38;;;;;;;6.10;2.90;;;;;;;;;;5029791;28;20190;-57
2024/01/01 05:57:04;;;;;;;5.30;2.40;;;;;;;;;;5030934;28;20181;-57
2024/01/01 05:59:30;;;;;;;11.13;2.67;;;;;;;;;;5029409;28;20564;-56
2024/01/01 06:01:56;;;;;;;10.80;3.53;;;;;;;;;;5028462;28;20181;-57
2024/01/01 06:04:22;;;;;;;5.87;2.10;;;;;;;;;;5030251;28;20247;-57
2024/01/01 06:06:48;;;;;;;8.93;2.50;;;;;;;;;;5030310;28;20186;-57
2024/01/01 06:09:14;;;;;;;8.63;3.77;;;;;;;;;;5030766;28;20575;-57
2024/01/01 06:11:41;;;;;;;7.20;3.00;;;;;;;;;;5030482;28;20178;-57
2024/01/01 06:14:07;;;;;;;6.07;2.33;;;;;;;;;;5029937;28;20227;-57
2024/01/01 06:16:33;;;;;;;7.33;2.47;;;;;;;;;;5030551;28;20775;-57
2024/01/01 06:18:59;;;;;;;6.37;2.40;;;;;;;;;;5029281;28;20281;-57
2024/01/01 06:21:25;;;;;;;8.03;2.63;;;;;;;;;;5029954;28;20193;-57
2024/01/01 06:23:51;;;;;;;9.27;2.70;;;;;;;;;;5028364;28;20206;-57
2024/01/01 06:26:17;;;;;;;6.37;2.73;;;;;;;;;;5031040;28;20166;-57
2024/01/01 06:28:43;;;;;;;8.40;3.27;;;;;;;;;;5029696;28;20634;-57
2024/01/01 06:31:10;;;;;;;6.70;2.33;;;;;;;;;;5028997;28;20215;-57
2024/01/01 06:33:36;;;;;;;9.37;2.60;;;;;;;;;;5029702;28;20197;-57
2024/01/01 06:36:02;;;;;;;9.87;2.80;;;;;;;;;;5029504;28;20169;-57
2024/01/01 06:38:28;;;;;;;9.10;2.80;;;;;;;;;;5029040;28;20732;-57
2024/01/01 06:40:54;;;;;;;7.63;2.53;;;;;;;;;;5027842;28;20193;-57
2024/01/01 06:43:20;;;;;;;6.17;2.47;;;;;;;;;;5025400;28;20650;-57
2024/01/01 06:45:46;;;;;;;5.23;2.10;;;;;;;;;;5024800;28;20184;-57
2024/01/01 06:48:12;;;;;;;6.67;3.13;;;;;;;;;;5027445;28;20646;-57
2024/01/01 06:50:38;;;;;;;5.50;2.53;;;;;;;;;;5030327;28;20680;-57
2024/01/01 06:53:04;;;;;;;7.87;3.23;;;;;;;;;;5029834;28;20521;-56
2024/01/01 06:55:31;;;;;;;4.07;2.33;;;;;;;;;;5028901;28;20193;-57
2024/01/01 06:57:59;;;;;;;4.83;2.17;;;;;;;;;;5028551;28;20622;-57
2024/01/01 07:00:25;;;;;;;4.13;2.00;;;;;;;;;;5030610;28;20269;-57
2024/01/01 07:02:51;;;;;;;7.60;2.90;;;;;;;;;;5029967;28;20315;-57
2024/01/01 07:05:18;;;;;;;4.53;1.70;;;;;;;;;;5026669;28;20307;-57
2024/01/01 07:07:44;;;;;;;5.30;2.07;;;;;;;;;;5029538;28;20563;-57
2024/01/01 07:10:10;;;;;;;7.43;2.43;;;;;;;;;;5029468;28;20582;-57
2024/01/01 07:12:36;;;;;;;6.37;1.97;;;;;;;;;;5029057;28;20642;-57
2024/01/01 07:15:03;;;;;;;7.20;2.60;;;;;;;;;;5026770;28;20189;-57
2024/01/01 07:17:29;;;;;;;8.90;2.33;;;;;;;;;;5029357;28;20228;-57
2024/01/01 07:19:55;;;;;;;6.73;2.30;;;;;;;;;;5029351;28;20181;-57
2024/01/01 07:22:21;;;;;;;5.03;3.07;;;;;;;;;;5030039;28;20240;-57
2024/01/01 07:24:47;;;;;;;8.90;2.13;;;;;;;;;;5029098;28;20205;-56
2024/01/01 07:27:13;;;;;;;5.50;2.33;;;;;;;;;;5034837;28;20548;-56
2024/01/01 07:29:41;;;;;;;3.40;1.90;;;;;;;;;;5029835;28;20228;-57
2024/01/01 07:32:07;;;;;;;5.47;2.17;;;;;;;;;;5032469;28;20205;-56
2024/01/01 07:34:33;;;;;;;4.97;1.93;;;;;;;;;;5032479;28;20181;-57
2024/01/01 07:37:00;;;;;;;6.47;1.90;;;;;;;;;;5029032;28;20174;-57
2024/01/01 07:39:29;;;;;;;4.77;1.87;;;;;;;;;;5027725;28;20190;-56
2024/01/01 07:41:55;;;;;;;7.50;2.30;;;;;;;;;;5027171;28;20213;-57
2024/01/01 07:44:22;;;;;;;5.93;1.90;;;;;;;;;;5028964;28;20266;-56
2024/01/01 07:46:48;;;;;;;6.03;2.33;;;;;;;;;;5028730;28;20852;-57
2024/01/01 07:49:15;;;;;;;5.27;2.10;;;;;;;;;;5023902;28;20264;-57
2024/01/01 07:51:41;;;;;;;3.23;2.07;;;;;;;;;;5027447;28;20276;-56
2024/01/01 07:54:07;;;;;;;7.97;2.43;;;;;;;;;;5027751;28;20220;-56
2024/01/01 07:56:36;;;;;;;6.80;2.00;;;;;;;;;;5027883;28;20236;-56
2024/01/01 07:59:02;;;;;;;7.00;2.00;;;;;;;;;;5021089;28;20194;-55
2024/01/01 08:01:28;;;;;;;4.00;2.00;;;;;;;;;;5025639;28;20200;-55
2024/01/01 08:03:54;;;;;;;5.10;2.30;;;;;;;;;;5027581;28;20213;-56
2024/01/01 08:06:21;;;;;;;5.17;2.10;;;;;;;;;;5027582;28;20278;-56
2024/01/01 08:08:47;;;;;;;4.93;2.17;;;;;;;;;;5026479;28;20162;-56
2024/01/01 08:11:13;;;;;;;5.03;1.73;;;;;;;;;;5028238;28;20173;-55
2024/01/01 08:13:39;;;;;;;4.57;2.00;;;;;;;;;;5028734;28;20210;-55
2024/01/01 08:16:06;;;;;;;5.57;2.20;;;;;;;;;;5028463;28;20228;-56
2024/01/01 08:18:32;;;;;;;3.30;1.53;;;;;;;;;;5028399;28;20185;-56
2024/01/01 08:20:58;;;;;;;2.70;1.90;;;;;;;;;;5028798;28;20178;-56
2024/01/01 08:23:31;;;;;;;4.40;1.60;;;;;;;;;;5029122;28;20648;-56
2024/01/01 08:25:57;;;;;;;3.67;1.90;;;;;;;;;;5027989;28;20182;-55
2024/01/01 08:28:26;;;;;;;4.93;2.30;;;;;;;;;;5029245;28;21022;-56
2024/01/01 08:30:52;;;;;;;5.30;1.70;;;;;;;;;;5028976;28;20184;-56
2024/01/01 08:33:18;;;;;;;5.77;1.63;;;;;;;;;;5031076;28;20186;-56
2024/01/01 08:35:44;;;;;;;3.17;1.57;;;;;;;;;;5026153;28;20178;-56
2024/01/01 08:38:10;;;;;;;4.20;2.13;;;;;;;;;;5026271;28;20165;-55
2024/01/01 08:40:37;;;;;;;4.03;1.80;;;;;;;;;;5028565;28;20175;-56
2024/01/01 08:43:03;;;;;;;4.83;1.97;;;;;;;;;;5031401;28;20154;-55
2024/01/01 08:45:29;;;;;;;4.33;1.83;;;;;;;;;;5029991;28;20244;-55
2024/01/01 08:47:55;;;;;;;2.83;1.70;;;;;;;;;;5028479;28;20594;-56
2024/01/01 08:50:21;;;;;;;3.00;1.50;;;;;;;;;;5027721;28;20641;-55
2024/01/01 08:52:47;;;;;;;2.83;1.60;;;;;;;;;;5031042;28;20170;-55
2024/01/01 08:55:13;;;;;;;4.90;1.63;;;;;;;;;;5029469;28;20194;-55
2024/01/01 08:57:41;;;;;;;8.67;2.47;;;;;;;;;;5027534;28;20178;-55
2024/01/01 09:00:08;;;;;;;4.17;1.80;;;;;;;;;;5033831;28;20190;-55
2024/01/01 09:02:34;;;;;;;3.20;1.53;;;;;;;;;;5030600;28;20264;-55
2024/01/01 09:05:00;;;;;;;2.17;1.53;;;;;;;;;;5031671;28;20277;-55
2024/01/01 09:07:26;;;;;;;3.60;1.70;;;;;;;;;;5034769;28;20635;-55
2024/01/01 09:09:52;;;;;;;2.53;1.70;;;;;;;;;;5027108;28;20672;-55
2024/01/01 09:12:19;;;;;;;3.37;1.70;;;;;;;;;;5024184;28;20186;-55
2024/01/01 09:14:45;;;;;;;3.00;1.90;;;;;;;;;;5027788;28;20230;-58
2024/01/01 09:17:11;;;;;;;2.93;1.57;;;;;;;;;;5028602;28;20661;-53
2024/01/01 09:19:37;;;;;;;3.37;1.57;;;;;;;;;;5029144;28;20568;-54
2024/01/01 09:22:04;;;;;;;5.60;1.90;;;;;;;;;;5029171;28;20196;-53
2024/01/01 09:24:30;;;;;;;2.73;1.40;;;;;;;;;;5029389;28;20197;-54
2024/01/01 09:26:56;;;;;;;4.47;1.97;;;;;;;;;;5030001;28;20583;-53
2024/01/01 09:29:23;;;;;;;3.40;1.80;;;;;;;;;;5026160;28;20276;-53
2024/01/01 09:31:49;;;;;;;4.17;1.80;;;;;;;;;;5026997;28;20201;-53
2024/01/01 09:34:15;;;;;;;2.63;1.27;;;;;;;;;;5020192;28;20167;-54
2024/01/01 09:36:41;;;;;;;4.77;1.47;;;;;;;;;;5030229;28;20181;-54
2024/01/01 09:39:08;;;;;;;3.47;1.43;;;;;;;;;;5028730;28;20228;-54
2024/01/01 09:41:34;;;;;;;3.03;1.60;;;;;;;;;;5028685;28;20710;-54
2024/01/01 09:44:01;;;;;;;3.20;1.43;;;;;;;;;;5029316;28;20205;-53
2024/01/01 09:46:32;;;;;;;2.60;1.33;;;;;;;;;;5023740;28;20244;-52
2024/01/01 09:48:59;;;;;;;5.60;1.67;;;;;;;;;;5025726;28;20653;-53
2024/01/01 09:51:25;;;;;;;6.93;1.90;;;;;;;;;;5025552;28;20197;-53
2024/01/01 09:53:52;;;;;;;2.37;1.50;;;;;;;;;;5029693;28;20679;-52
2024/01/01 09:56:18;;;;;;;7.67;1.87;;;;;;;;;;5030192;28;20197;-53
2024/01/01 09:58:45;;;;;;;3.10;1.40;;;;;;;;;;5025387;28;20228;-53
2024/01/01 10:01:21;;;;;;;3.93;1.63;;;;;;;;;;5030497;28;20705;-53
2024/01/01 10:04:03;;;;;;;2.33;1.80;;;;;;;;;;5032052;28;20205;-54
2024/01/01 10:06:30;;;;;;;3.20;1.93;;;;;;;;;;5025536;28;20186;-53
2024/01/01 10:09:09;;;;;;;3.67;1.70;;;;;;;;;;5025141;28;20232;-53
2024/01/01 10:11:38;;;;;;;4.43;1.73;;;;;;;;;;5027613;28;20280;-57
2024/01/01 10:14:06;;;;;;;3.07;1.70;;;;;;;;;;5030040;28;20201;-57
2024/01/01 10:16:33;;;;;;;4.80;2.03;;;;;;;;;;5034731;28;20308;-57
2024/01/01 10:19:00;;;;;;;5.83;1.83;;;;;;;;;;5029428;28;20170;-57
2024/01/01 10:21:34;;;;;;;2.77;2.00;;;;;;;;;;5032531;28;20225;-57
2024/01/01 10:24:13;;;;;;;3.00;1.57;;;;;;;;;;5029253;28;20555;-57
2024/01/01 10:26:43;;;;;;;4.03;1.97;;;;;;;;;;5021834;28;20176;-55
2024/01/01 10:29:13;;;;;;;6.47;2.80;;;;;;;;;;5028997;28;20174;-54
2024/01/01 10:31:44;;;;;;;3.47;1.80;;;;;;;;;;5029264;28;20185;-54
2024/01/01 10:34:10;;;;;;;4.27;1.87;;;;;;;;;;5028524;28;20645;-54
2024/01/01 10:36:37;;;;;;;5.33;2.07;;;;;;;;;;5014373;28;20174;-54
2024/01/01 10:39:05;;;;;;;2.70;2.00;;;;;;;;;;5026945;28;20622;-53
2024/01/01 10:41:32;;;;;;;2.97;1.80;;;;;;;;;;5029083;28;20181;-54
2024/01/01 10:43:58;;;;;;;3.73;1.93;;;;;;;;;;5028314;28;20255;-53
2024/01/01 10:46:26;;;;;;;5.13;1.90;;;;;;;;;;5030387;28;20178;-54
2024/01/01 10:48:52;;;;;;;5.33;2.30;;;;;;;;;;5029144;28;20170;-53
2024/01/01 10:51:41;;;;;;;5.57;2.57;;;;;;;;;;5028852;28;20198;-54
2024/01/01 10:54:10;;;;;;;2.67;1.67;;;;;;;;;;5031372;28;20189;-54
2024/01/01 10:56:57;;;;;;;6.30;2.03;;;;;;;;;;5037605;28;20182;-53
2024/01/01 10:59:26;;;;;;;4.60;2.10;;;;;;;;;;5026429;28;20193;-53
2024/01/01 11:01:56;;;;;;;5.93;2.37;;;;;;;;;;5025835;28;20178;-53
2024/01/01 11:04:23;;;;;;;4.13;1.70;;;;;;;;;;5023755;28;20205;-54
2024/01/01 11:06:49;;;;;;;5.33;2.13;;;;;;;;;;5031489;28;20207;-54
2024/01/01 11:12:34;;;;;;;10.43;1.73;;;;;;;;;;5019462;28;20212;-54
2024/01/01 11:15:20;;;;;;;3.43;1.50;;;;;;;;;;5030300;28;20181;-54
2024/01/01 11:17:46;;;;;;;4.57;2.00;;;;;;;;;;5035949;28;20728;-53
2024/01/01 11:20:32;;;;;;;2.57;1.70;;;;;;;;;;5027286;28;20182;-55
2024/01/01 11:22:58;;;;;;;2.47;1.70;;;;;;;;;;5022896;28;20669;-53
2024/01/01 11:25:31;;;;;;;2.63;1.77;;;;;;;;;;5027844;28;20237;-53
2024/01/01 11:27:57;;;;;;;6.73;2.00;;;;;;;;;;5028385;28;20633;-54
2024/01/01 11:30:23;;;;;;;6.13;2.50;;;;;;;;;;5028963;28;20186;-53
2024/01/01 11:32:49;;;;;;;5.73;2.33;;;;;;;;;;5035762;28;20174;-53
2024/01/01 11:35:21;;;;;;;5.00;1.60;;;;;;;;;;5027909;28;20629;-56
2024/01/01 11:37:48;;;;;;;7.00;2.30;;;;;;;;;;5028691;28;20192;-56
2024/01/01 11:40:14;;;;;;;6.00;2.20;;;;;;;;;;5029871;28;20174;-56
2024/01/01 11:42:40;;;;;;;7.37;2.10;;;;;;;;;;5028628;28;20276;-57
2024/01/01 11:45:10;;;;;;;2.63;1.70;;;;;;;;;;5020086;28;20209;-56
2024/01/01 11:47:37;;;;;;;6.37;1.87;;;;;;;;;;5026576;28;20197;-57
2024/01/01 11:50:04;;;;;;;6.03;2.47;;;;;;;;;;5026146;28;20182;-57
2024/01/01 11:52:30;;;;;;;5.17;2.20;;;;;;;;;;5030857;28;20991;-56
2024/01/01 11:54:56;;;;;;;6.43;2.63;;;;;;;;;;5028103;28;20538;-56
2024/01/01 11:57:22;;;;;;;5.20;1.80;;;;;;;;;;5027980;28;20181;-57
2024/01/01 11:59:49;;;;;;;4.53;2.33;;;;;;;;;;5026661;28;20645;-57
2024/01/01 12:02:17;;;;;;;3.03;1.97;;;;;;;;;;5028660;28;20236;-57
2024/01/01 12:04:45;;;;;;;6.77;2.20;;;;;;;;;;5029865;28;20189;-57
2024/01/01 12:07:11;;;;;;;4.33;2.37;;;;;;;;;;5036411;28;20170;-57
2024/01/01 12:09:37;;;;;;;8.67;2.60;;;;;;;;;;5031452;28;20186;-56
2024/01/01 12:12:07;;;;;;;5.73;2.37;;;;;;;;;;5028821;28;20217;-56
2024/01/01 12:14:33;;;;;;;4.33;2.10;;;;;;;;;;5020566;28;20216;-57
2024/01/01 12:16:59;;;;;;;7.40;2.50;;;;;;;;;;5022757;28;20316;-56
2024/01/01 12:19:25;;;;;;;4.93;2.17;;;;;;;;;;5020998;28;20268;-56
2024/01/01 12:21:52;;;;;;;8.27;2.40;;;;;;;;;;5025721;28;20595;-57
2024/01/01 12:24:19;;;;;;;6.13;2.20;;;;;;;;;;5023131;28;20297;-57
2024/01/01 12:26:48;;;;;;;4.67;2.10;;;;;;;;;;5022755;28;20269;-57
2024/01/01 12:29:14;;;;;;;3.20;2.27;;;;;;;;;;5026917;28;20170;-57
2024/01/01 12:31:41;;;;;;;6.13;2.50;;;;;;;;;;5023722;28;20179;-57
2024/01/01 12:34:08;;;;;;;4.33;2.00;;;;;;;;;;5023572;28;20190;-57
2024/01/01 12:36:34;;;;;;;6.30;2.43;;;;;;;;;;5024945;28;20182;-57
2024/01/01 12:39:01;;;;;;;8.47;2.10;;;;;;;;;;5023031;28;20849;-57
2024/01/01 12:41:28;;;;;;;8.60;2.40;;;;;;;;;;5025962;28;20182;-56
2024/01/01 12:43:56;;;;;;;12.43;2.67;;;;;;;;;;5024844;28;20577;-57
2024/01/01 12:46:22;;;;;;;4.77;2.20;;;;;;;;;;5027049;28;20174;-56
2024/01/01 12:48:48;;;;;;;5.43;2.40;;;;;;;;;;5028708;28;20328;-56
2024/01/01 12:51:16;;;;;;;3.93;2.30;;;;;;;;;;5024362;28;20170;-57
2024/01/01 12:53:43;;;;;;;6.33;2.50;;;;;;;;;;5023415;28;20230;-57
2024/01/01 12:56:09;;;;;;;6.63;2.83;;;;;;;;;;5022393;28;20185;-57
2024/01/01 12:58:35;;;;;;;6.97;2.67;;;;;;;;;;5022793;28;20194;-56
2024/01/01 13:01:01;;;;;;;6.97;2.40;;;;;;;;;;5026181;28;20209;-57
2024/01/01 13:03:27;;;;;;;8.37;2.30;;;;;;;;;;5024785;28;20190;-57
2024/01/01 13:05:53;;;;;;;9.83;3.00;;;;;;;;;;5020645;28;20189;-56
2024/01/01 13:08:19;;;;;;;6.73;3.13;;;;;;;;;;5022289;28;20257;-57
2024/01/01 13:10:45;;;;;;;4.03;2.47;;;;;;;;;;5026303;28;20190;-57
2024/01/01 13:13:11;;;;;;;9.87;3.60;;;;;;;;;;5018333;28;20206;-57
2024/01/01 13:15:38;;;;;;;7.07;3.03;;;;;;;;;;5022637;28;20194;-57
2024/01/01 13:18:08;;;;;;;6.77;2.77;;;;;;;;;;5021082;28;20691;-57
2024/01/01 13:20:34;;;;;;;14.37;3.40;;;;;;;;;;5022736;28;20616;-57
2024/01/01 13:23:00;;;;;;;6.00;2.70;;;;;;;;;;5027594;28;20625;-57
2024/01/01 13:25:26;;;;;;;7.10;2.67;;;;;;;;;;5021353;28;20572;-56
2024/01/01 13:27:52;;;;;;;5.87;2.80;;;;;;;;;;5023365;28;20701;-57
2024/01/01 13:30:18;;;;;;;5.33;2.83;;;;;;;;;;5024242;28;20692;-57
2024/01/01 13:32:44;;;;;;;6.50;2.43;;;;;;;;;;5020826;28;20197;-57
2024/01/01 13:35:11;;;;;;;5.67;2.47;;;;;;;;;;5021254;28;20182;-56
2024/01/01 13:37:37;;;;;;;4.17;2.50;;;;;;;;;;5024356;28;20193;-58
2024/01/01 13:40:04;;;;;;;8.50;2.90;;;;;;;;;;5020991;28;20185;-57
2024/01/01 13:42:31;;;;;;;5.53;2.87;;;;;;;;;;5023366;28;20192;-58
2024/01/01 13:44:57;;;;;;;13.37;3.40;;;;;;;;;;5017782;28;20694;-56
2024/01/01 13:47:23;;;;;;;6.83;2.63;;;;;;;;;;5020199;28;20571;-56
2024/01/01 13:49:49;;;;;;;12.97;3.70;;;;;;;;;;5019347;28;20182;-57
2024/01/01 13:52:15;;;;;;;6.70;3.10;;;;;;;;;;5023207;28;20182;-57
2024/01/01 13:54:42;;;;;;;6.53;2.67;;;;;;;;;;5022862;28;20189;-56
2024/01/01 13:57:09;;;;;;;12.83;3.30;;;;;;;;;;5022067;28;20652;-54
2024/01/01 13:59:35;;;;;;;9.43;2.80;;;;;;;;;;5026005;28;20197;-54
2024/01/01 14:02:04;;;;;;;6.97;2.90;;;;;;;;;;5028641;28;20182;-53
2024/01/01 14:04:30;;;;;;;8.77;2.80;;;;;;;;;;5029607;28;20662;-53
2024/01/01 14:06:56;;;;;;;12.47;3.40;;;;;;;;;;5035228;28;20165;-53
2024/01/01 14:09:22;;;;;;;12.13;3.37;;;;;;;;;;5030734;28;20264;-53
2024/01/01 14:11:49;;;;;;;11.37;3.27;;;;;;;;;;5034188;28;20627;-54
2024/01/01 14:14:15;;;;;;;14.63;4.47;;;;;;;;;;5030131;28;20857;-55
2024/01/01 14:16:45;;;;;;;12.97;5.13;;;;;;;;;;5028285;28;20221;-53
2024/01/01 14:19:13;;;;;;;14.37;4.73;;;;;;;;;;5029363;28;20185;-53
2024/01/01 14:21:39;;;;;;;16.90;5.03;;;;;;;;;;5030634;28;20641;-53
2024/01/01 14:24:06;;;;;;;9.67;4.70;;;;;;;;;;5026096;28;20264;-54
2024/01/01 14:26:32;;;;;;;11.10;4.93;;;;;;;;;;5018566;28;20517;-53
2024/01/01 14:28:58;;;;;;;13.07;5.10;;;;;;;;;;5033754;28;20830;-53
2024/01/01 14:31:25;;;;;;;13.20;5.23;;;;;;;;;;5028336;28;20193;-53
2024/01/01 14:33:51;;;;;;;13.73;5.37;;;;;;;;;;5028232;28;20214;-53
2024/01/01 14:36:17;;;;;;;12.63;5.50;;;;;;;;;;5033775;28;20185;-53
2024/01/01 14:38:43;;;;;;;14.33;5.87;;;;;;;;;;5029716;28;20239;-53
2024/01/01 14:41:09;;;;;;;12.97;6.23;;;;;;;;;;5028821;28;20205;-53